createdAt,value
2022-08-11T00:02:01.702Z,24018.30
2022-08-11T00:04:36.226Z,23896.05
2022-08-11T00:07:06.109Z,23973.94
2022-08-11T00:09:39.404Z,24036.30
2022-08-11T00:12:14.506Z,24087.08
2022-08-11T00:14:43.101Z,24105.53
2022-08-11T00:17:14.688Z,24081.20
2022-08-11T00:20:12.447Z,24029.80
2022-08-11T00:22:34.216Z,24059.54
2022-08-11T00:25:11.188Z,24055.92
2022-08-11T00:27:40.657Z,24039.26
2022-08-11T00:30:10.809Z,24227.30
2022-08-11T00:32:39.713Z,24133.41
2022-08-11T00:35:56.230Z,24321.91
2022-08-11T00:38:01.090Z,24325.45
2022-08-11T00:40:51.744Z,24236.06
2022-08-11T00:43:55.546Z,24101.35
2022-08-11T00:46:25.302Z,24228.63
2022-08-11T00:49:10.363Z,24325.56
2022-08-11T00:52:03.981Z,24021.79
2022-08-11T00:54:50.423Z,24157.03
2022-08-11T00:57:36.941Z,24001.45
2022-08-11T01:00:14.820Z,24283.19
2022-08-11T01:02:47.284Z,24373.56
2022-08-11T01:05:35.732Z,24301.26
2022-08-11T01:08:42.571Z,24522.38
2022-08-11T01:11:15.381Z,24466.67
2022-08-11T01:14:00.092Z,24369.43
2022-08-11T01:16:36.174Z,24369.57
2022-08-11T01:19:31.310Z,24336.25
2022-08-11T01:22:19.116Z,24523.83
2022-08-11T01:24:57.585Z,24594.47
2022-08-11T01:27:42.698Z,24582.68
2022-08-11T01:30:46.227Z,24448.37
2022-08-11T01:33:50.566Z,24384.62
2022-08-11T01:36:20.225Z,24513.46
2022-08-11T01:39:19.459Z,24417.38
2022-08-11T01:42:05.335Z,24712.66
2022-08-11T01:44:53.378Z,24717.35
2022-08-11T01:47:22.837Z,24645.34
2022-08-11T01:50:22.419Z,24722.39
2022-08-11T01:53:07.552Z,24833.36
2022-08-11T01:56:01.433Z,24679.22
2022-08-11T01:58:43.280Z,24608.19
2022-08-11T02:01:33.781Z,24430.34
2022-08-11T02:04:09.161Z,24626.81
2022-08-11T02:06:50.265Z,24542.45
2022-08-11T02:09:28.981Z,24357.29
2022-08-11T02:12:27.160Z,24465.32
2022-08-11T02:15:29.216Z,24424.63
2022-08-11T02:18:01.795Z,24295.52
2022-08-11T02:20:48.134Z,24343.37
2022-08-11T02:24:05.254Z,24410.66
2022-08-11T02:26:41.740Z,24522.89
2022-08-11T02:29:43.422Z,24434.25
2022-08-11T02:32:30.029Z,24337.72
2022-08-11T02:35:08.812Z,24479.60
2022-08-11T02:38:05.012Z,24290.88
2022-08-11T02:40:42.984Z,24456.93
2022-08-11T02:43:35.018Z,24357.48
2022-08-11T02:46:22.527Z,24443.69
2022-08-11T02:48:55.182Z,24431.63
2022-08-11T02:52:06.095Z,24416.15
2022-08-11T02:54:44.575Z,24577.46
2022-08-11T02:57:23.546Z,24696.05
2022-08-11T03:00:13.290Z,24637.69
2022-08-11T03:03:00.977Z,24425.15
2022-08-11T03:05:45.229Z,24395.86
2022-08-11T03:08:41.856Z,24333.69
2022-08-11T03:11:52.212Z,24404.64
2022-08-11T03:14:36.027Z,24533.64
2022-08-11T03:17:30.794Z,24558.04
2022-08-11T03:20:06.880Z,24608.02
2022-08-11T03:22:45.026Z,24506.53
2022-08-11T03:25:37.543Z,24644.96
2022-08-11T03:28:26.151Z,24831.23
2022-08-11T03:30:57.136Z,24628.88
2022-08-11T03:33:28.404Z,24737.33
2022-08-11T03:36:15.916Z,24730.88
2022-08-11T03:39:03.824Z,25192.30
2022-08-11T03:41:57.665Z,24828.67
2022-08-11T03:45:15.578Z,25075.42
2022-08-11T03:48:08.006Z,24971.46
2022-08-11T03:51:16.009Z,25076.87
2022-08-11T03:54:20.210Z,25196.30
2022-08-11T03:57:05.457Z,24876.26
2022-08-11T03:59:50.614Z,25308.50
2022-08-11T04:02:29.656Z,24874.63
2022-08-11T04:04:59.034Z,25412.15
2022-08-11T04:07:44.379Z,25068.73
2022-08-11T04:10:35.290Z,25015.24
2022-08-11T04:13:29.855Z,25366.15
2022-08-11T04:16:18.121Z,24984.12
2022-08-11T04:19:05.824Z,25134.50
2022-08-11T04:21:35.551Z,25098.03
2022-08-11T04:24:35.290Z,25266.50
2022-08-11T04:27:24.957Z,24925.36
2022-08-11T04:30:37.655Z,25317.95
2022-08-11T04:33:44.566Z,25059.72
2022-08-11T04:36:52.431Z,25030.67
2022-08-11T04:40:01.421Z,25300.94
2022-08-11T04:43:00.027Z,25204.02
2022-08-11T04:45:40.559Z,24871.90
2022-08-11T04:48:28.879Z,25324.29
2022-08-11T04:51:16.961Z,25301.37
2022-08-11T04:54:26.377Z,25051.89
2022-08-11T04:57:08.657Z,25089.28
2022-08-11T05:00:14.115Z,25097.42
2022-08-11T05:02:59.338Z,25230.12
2022-08-11T05:05:56.271Z,25228.89
2022-08-11T05:08:49.026Z,25221.44
2022-08-11T05:11:49.722Z,25373.52
2022-08-11T05:14:52.630Z,25171.50
2022-08-11T05:17:34.617Z,24642.23
2022-08-11T05:20:01.630Z,25013.10
2022-08-11T05:22:31.079Z,25074.72
2022-08-11T05:25:11.701Z,24898.52
2022-08-11T05:28:05.331Z,24887.94
2022-08-11T05:30:34.517Z,24608.96
2022-08-11T05:33:13.672Z,24497.71
2022-08-11T05:36:01.387Z,24628.19
2022-08-11T05:38:34.796Z,24297.48
2022-08-11T05:41:03.101Z,24211.59
2022-08-11T05:43:30.334Z,24406.94
2022-08-11T05:46:06.259Z,24369.57
2022-08-11T05:48:36.878Z,24377.43
2022-08-11T05:51:10.479Z,24351.68
2022-08-11T05:53:46.783Z,24248.05
2022-08-11T05:56:14.970Z,24372.25
2022-08-11T05:58:46.657Z,24211.98
2022-08-11T06:01:21.363Z,24216.64
2022-08-11T06:03:58.474Z,24356.31
2022-08-11T06:06:28.100Z,24142.67
2022-08-11T06:09:00.414Z,24293.68
2022-08-11T06:11:42.945Z,24272.47
2022-08-11T06:14:13.339Z,24282.97
2022-08-11T06:16:42.762Z,24266.42
2022-08-11T06:19:10.908Z,24356.92
2022-08-11T06:21:38.538Z,24472.48
2022-08-11T06:24:14.177Z,24116.99
2022-08-11T06:27:10.681Z,24204.00
2022-08-11T06:29:47.738Z,24402.84
2022-08-11T06:32:17.026Z,24190.16
2022-08-11T06:35:02.087Z,24093.40
2022-08-11T06:38:06.973Z,24140.91
2022-08-11T06:40:33.872Z,24032.39
2022-08-11T06:43:18.842Z,24135.12
2022-08-11T06:46:08.618Z,24088.47
2022-08-11T06:48:39.197Z,23928.29
2022-08-11T06:51:09.845Z,24044.61
2022-08-11T06:54:03.903Z,24050.64
2022-08-11T06:56:37.221Z,23980.40
2022-08-11T06:59:04.039Z,23790.63
2022-08-11T07:01:43.865Z,23678.91
2022-08-11T07:04:28.913Z,23546.38
2022-08-11T07:07:10.518Z,23375.80
2022-08-11T07:10:13.380Z,23328.09
2022-08-11T07:12:48.230Z,23297.40
2022-08-11T07:15:15.420Z,23357.32
2022-08-11T07:17:46.539Z,23273.78
2022-08-11T07:20:14.136Z,23266.32
2022-08-11T07:22:49.225Z,23185.23
2022-08-11T07:25:17.356Z,23153.65
2022-08-11T07:27:59.999Z,23107.91
2022-08-11T07:30:27.491Z,23173.89
2022-08-11T07:32:59.071Z,23070.88
2022-08-11T07:35:36.278Z,23249.64
2022-08-11T07:38:08.135Z,23357.75
2022-08-11T07:40:36.690Z,23380.92
2022-08-11T07:43:05.381Z,23272.68
2022-08-11T07:45:33.486Z,23157.22
2022-08-11T07:48:01.137Z,23153.83
2022-08-11T07:50:29.707Z,23141.75
2022-08-11T07:53:00.762Z,23284.33
2022-08-11T07:55:50.135Z,23372.03
2022-08-11T07:58:19.802Z,23038.77
2022-08-11T08:00:59.170Z,23193.85
2022-08-11T08:03:30.693Z,23425.65
2022-08-11T08:05:58.566Z,23194.16
2022-08-11T08:08:27.070Z,23270.18
2022-08-11T08:10:56.785Z,23525.59
2022-08-11T08:13:23.618Z,23599.23
2022-08-11T08:15:51.491Z,23509.66
2022-08-11T08:18:25.999Z,23530.18
2022-08-11T08:20:57.854Z,23408.60
2022-08-11T08:23:27.771Z,22854.77
2022-08-11T08:25:54.835Z,23226.24
2022-08-11T08:28:22.185Z,23425.60
2022-08-11T08:30:51.386Z,23300.02
2022-08-11T08:33:22.693Z,23403.50
2022-08-11T08:35:56.449Z,23730.00
2022-08-11T08:38:23.667Z,23459.99
2022-08-11T08:40:56.028Z,23411.99
2022-08-11T08:43:25.061Z,23522.71
2022-08-11T08:45:56.866Z,23468.95
2022-08-11T08:48:28.888Z,23225.89
2022-08-11T08:51:10.992Z,23534.96
2022-08-11T08:53:52.676Z,23686.85
2022-08-11T08:56:29.112Z,23643.51
2022-08-11T08:59:01.086Z,23552.27
2022-08-11T09:01:38.251Z,23007.71
2022-08-11T09:04:11.776Z,22758.83
2022-08-11T09:06:41.683Z,22848.42
2022-08-11T09:09:09.983Z,23151.03
2022-08-11T09:11:40.318Z,23591.50
2022-08-11T09:14:11.495Z,23411.45
2022-08-11T09:16:41.484Z,23438.89
2022-08-11T09:19:09.294Z,23668.88
2022-08-11T09:21:49.008Z,23579.11
2022-08-11T09:24:25.798Z,23542.92
2022-08-11T09:26:53.934Z,23125.52
2022-08-11T09:29:22.390Z,23373.14
2022-08-11T09:31:49.366Z,23600.94
2022-08-11T09:34:16.875Z,23632.73
2022-08-11T09:36:45.383Z,23213.37
2022-08-11T09:39:14.306Z,23131.66
2022-08-11T09:42:01.756Z,23296.54
2022-08-11T09:44:35.403Z,23268.43
2022-08-11T09:47:03.291Z,23200.32
2022-08-11T09:49:32.212Z,23188.63
2022-08-11T09:52:04.980Z,23266.15
2022-08-11T09:54:32.887Z,23429.73
2022-08-11T09:57:04.676Z,23406.47
2022-08-11T09:59:32.076Z,23337.50
2022-08-11T10:02:02.264Z,23338.22
2022-08-11T10:04:48.126Z,23377.25
2022-08-11T10:07:18.803Z,23578.07
2022-08-11T10:10:05.001Z,23461.97
2022-08-11T10:12:41.845Z,23426.93
2022-08-11T10:15:12.657Z,23382.89
2022-08-11T10:17:44.605Z,23454.30
2022-08-11T10:20:12.417Z,23463.57
2022-08-11T10:22:40.478Z,23306.65
2022-08-11T10:25:08.102Z,23299.44
2022-08-11T10:28:16.625Z,23318.84
2022-08-11T10:30:25.717Z,23488.20
2022-08-11T10:33:00.282Z,23468.02
2022-08-11T10:35:29.405Z,23470.61
2022-08-11T10:38:08.688Z,23494.94
2022-08-11T10:40:39.763Z,23500.12
2022-08-11T10:43:08.905Z,23378.39
2022-08-11T10:45:38.271Z,23451.25
2022-08-11T10:48:09.997Z,23583.71
2022-08-11T10:50:39.237Z,23529.79
2022-08-11T10:53:07.908Z,23478.17
2022-08-11T10:55:36.768Z,23516.33
2022-08-11T10:58:04.749Z,23515.24
2022-08-11T11:00:33.733Z,23485.57
2022-08-11T11:03:22.249Z,23550.14
2022-08-11T11:06:12.797Z,23382.21
2022-08-11T11:11:18.585Z,23447.39
2022-08-11T11:13:53.274Z,23302.97
2022-08-11T11:16:24.718Z,23365.95
2022-08-11T11:19:11.311Z,22592.40
2022-08-11T11:21:39.777Z,22535.89
2022-08-11T11:24:35.295Z,22490.22
2022-08-11T11:27:29.385Z,22510.00
2022-08-11T11:30:07.391Z,22630.11
2022-08-11T11:33:01.804Z,22513.81
2022-08-11T11:35:47.043Z,22783.26
2022-08-11T11:38:14.576Z,22893.79
2022-08-11T11:40:42.264Z,22631.48
2022-08-11T11:43:10.943Z,22489.06
2022-08-11T11:45:41.280Z,22741.59
2022-08-11T11:48:09.176Z,22526.93
2022-08-11T11:50:37.618Z,22447.80
2022-08-11T11:53:09.091Z,22510.13
2022-08-11T11:55:37.281Z,22869.85
2022-08-11T11:58:05.924Z,23188.98
2022-08-11T12:00:34.506Z,22464.01
2022-08-11T12:03:09.404Z,22704.37
2022-08-11T12:05:38.383Z,21887.96
2022-08-11T12:08:12.728Z,22023.81
2022-08-11T12:10:49.038Z,22028.77
2022-08-11T12:13:18.273Z,21909.53
2022-08-11T12:16:31.230Z,21802.22
2022-08-11T12:18:35.097Z,21798.28
2022-08-11T12:21:04.042Z,21789.93
2022-08-11T12:23:34.918Z,21754.64
2022-08-11T12:26:25.708Z,21862.87
2022-08-11T12:28:51.083Z,21723.18
2022-08-11T12:31:18.490Z,21690.43
2022-08-11T12:33:45.139Z,21637.68
2022-08-11T12:36:15.444Z,21750.82
2022-08-11T12:38:51.364Z,21804.19
2022-08-11T12:41:22.392Z,21807.47
2022-08-11T12:43:57.204Z,21931.67
2022-08-11T12:46:36.657Z,21766.75
2022-08-11T12:49:15.281Z,21852.13
2022-08-11T12:52:12.036Z,21706.12
2022-08-11T12:54:45.092Z,21871.63
2022-08-11T12:57:43.839Z,21724.69
2022-08-11T13:00:11.738Z,21628.37
2022-08-11T13:02:44.436Z,21728.00
2022-08-11T13:05:16.532Z,21675.59
2022-08-11T13:07:50.566Z,21703.19
2022-08-11T13:10:20.720Z,21728.53
2022-08-11T13:12:47.607Z,21749.29
2022-08-11T13:15:22.301Z,21789.27
2022-08-11T13:17:51.954Z,21769.63
2022-08-11T13:20:22.554Z,21797.14
2022-08-11T13:22:53.121Z,21928.09
2022-08-11T13:25:23.726Z,21865.23
2022-08-11T13:27:55.865Z,21643.42
2022-08-11T13:30:31.227Z,21753.37
2022-08-11T13:33:01.439Z,21682.54
2022-08-11T13:35:33.000Z,21684.12
2022-08-11T13:38:18.355Z,21801.75
2022-08-11T13:40:55.589Z,21921.96
2022-08-11T13:43:45.544Z,21775.46
2022-08-11T13:46:14.409Z,21843.64
2022-08-11T13:48:42.151Z,21854.75
2022-08-11T13:51:11.543Z,21874.69
2022-08-11T13:53:38.927Z,21820.96
2022-08-11T13:56:06.347Z,21726.89
2022-08-11T13:58:39.688Z,21973.71
2022-08-11T14:02:19.794Z,21858.44
2022-08-11T14:04:31.246Z,21880.87
2022-08-11T14:06:56.727Z,21944.95
2022-08-11T14:09:28.789Z,21936.05
2022-08-11T14:12:22.742Z,21790.82
2022-08-11T14:15:01.291Z,21965.65
2022-08-11T14:17:48.739Z,21844.31
2022-08-11T14:20:39.106Z,21848.57
2022-08-11T14:23:13.444Z,21924.97
2022-08-11T14:26:00.087Z,21675.92
2022-08-11T14:28:36.560Z,21780.00
2022-08-11T14:31:09.774Z,21744.89
2022-08-11T14:34:00.200Z,21768.56
2022-08-11T14:36:38.417Z,22006.88
2022-08-11T14:39:13.475Z,22133.39
2022-08-11T14:42:07.570Z,22026.54
2022-08-11T14:44:35.336Z,21922.13
2022-08-11T14:47:04.076Z,21729.79
2022-08-11T14:49:33.705Z,21747.12
2022-08-11T14:52:03.792Z,21949.65
2022-08-11T14:54:32.764Z,21995.02
2022-08-11T14:57:00.132Z,22082.17
2022-08-11T14:59:27.450Z,22066.23
2022-08-11T15:01:54.532Z,21768.48
2022-08-11T15:04:34.545Z,21854.65
2022-08-11T15:07:04.361Z,22021.95
2022-08-11T15:12:34.683Z,22134.35
2022-08-11T15:15:05.073Z,22152.52
2022-08-11T15:17:42.785Z,22030.36
2022-08-11T15:20:17.400Z,21780.69
2022-08-11T15:22:44.142Z,22225.51
2022-08-11T15:25:11.474Z,22035.56
2022-08-11T15:27:41.042Z,21778.83
2022-08-11T15:30:08.637Z,22192.49
2022-08-11T15:32:41.813Z,22024.85
2022-08-11T15:35:11.392Z,21865.11
2022-08-11T15:37:43.967Z,21967.00
2022-08-11T15:40:31.385Z,22134.37
2022-08-11T15:43:29.199Z,22093.76
2022-08-11T15:45:58.559Z,22251.59
2022-08-11T15:48:34.240Z,22098.07
2022-08-11T15:51:35.823Z,22263.62
2022-08-11T15:54:16.387Z,22039.22
2022-08-11T15:56:48.839Z,22086.17
2022-08-11T15:59:43.106Z,22063.40
2022-08-11T16:02:12.501Z,21950.78
2022-08-11T16:04:46.425Z,21865.13
2022-08-11T16:07:16.606Z,22109.27
2022-08-11T16:10:06.595Z,21893.14
2022-08-11T16:12:40.697Z,22131.15
2022-08-11T16:15:10.790Z,22123.56
2022-08-11T16:17:43.749Z,22100.22
2022-08-11T16:20:14.343Z,21990.21
2022-08-11T16:22:57.176Z,21876.85
2022-08-11T16:27:06.893Z,21715.76
2022-08-11T16:28:23.054Z,21898.23
2022-08-11T16:30:53.363Z,21987.18
2022-08-11T16:33:49.611Z,21980.24
2022-08-11T16:36:14.692Z,21921.32
2022-08-11T16:38:43.696Z,22054.87
2022-08-11T16:41:18.596Z,21798.20
2022-08-11T16:43:49.479Z,22156.66
2022-08-11T16:46:19.918Z,22171.79
2022-08-11T16:48:49.371Z,22209.42
2022-08-11T16:51:17.181Z,22052.50
2022-08-11T16:53:54.838Z,22210.36
2022-08-11T16:56:37.371Z,21923.16
2022-08-11T16:59:09.915Z,22014.69
2022-08-11T17:01:39.614Z,22219.81
2022-08-11T17:04:20.378Z,22196.69
2022-08-11T17:06:52.087Z,22244.42
2022-08-11T17:09:24.354Z,22074.18
2022-08-11T17:11:58.021Z,21916.36
2022-08-11T17:14:55.944Z,21961.08
2022-08-11T17:17:32.984Z,22178.80
2022-08-11T17:20:42.524Z,22128.68
2022-08-11T17:22:55.733Z,22161.51
2022-08-11T17:25:26.467Z,22022.95
2022-08-11T17:27:55.631Z,22147.74
2022-08-11T17:30:28.633Z,21958.63
2022-08-11T17:33:00.606Z,21877.81
2022-08-11T17:35:37.540Z,21951.56
2022-08-11T17:38:09.759Z,21929.29
2022-08-11T17:40:49.731Z,21986.10
2022-08-11T17:43:20.147Z,21863.66
2022-08-11T17:45:47.564Z,21797.65
2022-08-11T17:48:16.348Z,21918.64
2022-08-11T17:50:44.441Z,21928.53
2022-08-11T17:53:14.660Z,21903.50
2022-08-11T17:55:52.119Z,22040.86
2022-08-11T17:58:23.178Z,22057.14
2022-08-11T18:00:52.167Z,21974.52
2022-08-11T18:03:22.072Z,21905.26
2022-08-11T18:05:51.173Z,21966.50
2022-08-11T18:08:20.277Z,22301.95
2022-08-11T18:10:48.812Z,21865.34
2022-08-11T18:13:20.158Z,22648.26
2022-08-11T18:15:50.163Z,22342.61
2022-08-11T18:18:22.979Z,22234.95
2022-08-11T18:20:51.188Z,21987.87
2022-08-11T18:23:21.628Z,22466.76
2022-08-11T18:26:11.853Z,22430.32
2022-08-11T18:28:54.281Z,22534.05
2022-08-11T18:31:23.769Z,22419.25
2022-08-11T18:34:06.332Z,22612.75
2022-08-11T18:36:40.469Z,22385.90
2022-08-11T18:39:12.086Z,22520.43
2022-08-11T18:41:41.696Z,22453.31
2022-08-11T18:44:12.627Z,22722.72
2022-08-11T18:46:44.937Z,22517.44
2022-08-11T18:49:20.681Z,22582.67
2022-08-11T18:51:53.623Z,22549.78
2022-08-11T18:54:24.562Z,22296.44
2022-08-11T18:56:52.912Z,22330.21
2022-08-11T18:59:25.548Z,22212.15
2022-08-11T19:01:56.431Z,22325.44
2022-08-11T19:04:29.835Z,22310.39
2022-08-11T19:06:59.861Z,22384.89
2022-08-11T19:09:30.068Z,22433.84
2022-08-11T19:12:00.407Z,22296.20
2022-08-11T19:14:30.841Z,22324.81
2022-08-11T19:17:00.929Z,22363.66
2022-08-11T19:19:31.879Z,22404.78
2022-08-11T19:22:02.382Z,22398.63
2022-08-11T19:24:32.531Z,22479.30
2022-08-11T19:27:00.968Z,22352.00
2022-08-11T19:30:07.786Z,22565.90
2022-08-11T19:32:19.334Z,22382.58
2022-08-11T19:34:48.398Z,22435.43
2022-08-11T19:37:18.615Z,22496.22
2022-08-11T19:39:49.891Z,22439.25
2022-08-11T19:42:18.583Z,22574.69
2022-08-11T19:44:46.882Z,22436.22
2022-08-11T19:47:18.700Z,22488.46
2022-08-11T19:49:48.498Z,22408.42
2022-08-11T19:52:16.146Z,22340.54
2022-08-11T19:54:45.034Z,22497.62
2022-08-11T19:57:12.739Z,22593.75
2022-08-11T19:59:40.614Z,22571.21
2022-08-11T20:02:14.137Z,22508.44
2022-08-11T20:04:42.733Z,22454.18
2022-08-11T20:07:14.628Z,22588.00
2022-08-11T20:10:04.931Z,22520.33
2022-08-11T20:12:32.505Z,22601.80
2022-08-11T20:15:00.756Z,22691.67
2022-08-11T20:17:31.716Z,22447.62
2022-08-11T20:20:03.724Z,22701.17
2022-08-11T20:22:32.990Z,22609.17
2022-08-11T20:25:01.873Z,22702.66
2022-08-11T20:27:28.861Z,22774.30
2022-08-11T20:29:58.574Z,22732.51
2022-08-11T20:32:25.814Z,22715.60
2022-08-11T20:34:55.346Z,22745.49
2022-08-11T20:37:24.948Z,22556.63
2022-08-11T20:39:55.823Z,22639.81
2022-08-11T20:42:28.477Z,22583.68
2022-08-11T20:44:59.873Z,22848.68
2022-08-11T20:47:28.712Z,22729.98
2022-08-11T20:50:02.933Z,22779.52
2022-08-11T20:52:31.595Z,22586.88
2022-08-11T20:55:00.989Z,22692.86
2022-08-11T20:57:50.455Z,22666.61
2022-08-11T21:00:19.308Z,22731.86
2022-08-11T21:03:05.976Z,22651.86
2022-08-11T21:06:09.100Z,22581.77
2022-08-11T21:08:35.973Z,22646.78
2022-08-11T21:11:02.850Z,22636.75
2022-08-11T21:13:39.082Z,22566.96
2022-08-11T21:16:08.183Z,22665.61
2022-08-11T21:18:36.771Z,22618.46
2022-08-11T21:21:09.301Z,22584.38
2022-08-11T21:23:45.167Z,22634.31
2022-08-11T21:26:18.914Z,22623.27
2022-08-11T21:28:47.907Z,22820.54
2022-08-11T21:31:18.082Z,22559.53
2022-08-11T21:33:47.594Z,22613.14
2022-08-11T21:36:15.490Z,22632.03
2022-08-11T21:38:42.788Z,22599.32
2022-08-11T21:41:12.560Z,22664.55
2022-08-11T21:43:42.443Z,22811.87
2022-08-11T21:46:10.897Z,22525.36
2022-08-11T21:48:41.108Z,22735.20
2022-08-11T21:51:07.772Z,22697.39
2022-08-11T21:53:35.799Z,22828.17
2022-08-11T21:56:03.849Z,22680.21
2022-08-11T21:58:31.180Z,22740.42
2022-08-11T22:00:58.625Z,22659.71
2022-08-11T22:03:25.662Z,22794.00
2022-08-11T22:05:56.003Z,22823.37
2022-08-11T22:08:22.786Z,22760.86
2022-08-11T22:10:50.131Z,22679.13
2022-08-11T22:13:16.846Z,22767.92
2022-08-11T22:15:43.720Z,22718.76
2022-08-11T22:18:10.465Z,22809.62
2022-08-11T22:20:40.180Z,22624.25
2022-08-11T22:23:08.440Z,22741.85
2022-08-11T22:25:38.823Z,22835.47
2022-08-11T22:28:05.837Z,22794.95
2022-08-11T22:30:33.558Z,22735.06
2022-08-11T22:33:02.710Z,22681.90
2022-08-11T22:35:33.014Z,22696.65
2022-08-11T22:38:01.963Z,22742.21
2022-08-11T22:40:28.856Z,22685.46
2022-08-11T22:42:55.708Z,22749.45
2022-08-11T22:45:22.628Z,22861.89
2022-08-11T22:47:51.076Z,22696.00
2022-08-11T22:50:18.413Z,22902.65
2022-08-11T22:52:48.416Z,22738.36
2022-08-11T22:55:16.118Z,22602.62
2022-08-11T22:58:00.546Z,22712.50
2022-08-11T23:00:30.538Z,22875.78
2022-08-11T23:02:58.351Z,22817.92
2022-08-11T23:05:26.017Z,22786.97
2022-08-11T23:07:54.952Z,22774.83
2022-08-11T23:10:22.927Z,22816.47
2022-08-11T23:12:50.293Z,22783.01
2022-08-11T23:15:17.567Z,22704.76
2022-08-11T23:17:44.848Z,22724.92
2022-08-11T23:20:29.792Z,22812.87
2022-08-11T23:23:02.208Z,22812.91
2022-08-11T23:25:31.234Z,22705.43
2022-08-11T23:28:01.284Z,22809.78
2022-08-11T23:30:29.280Z,22876.54
2022-08-11T23:33:01.459Z,22840.77
2022-08-11T23:35:39.210Z,22724.63
2022-08-11T23:38:18.007Z,22754.78
2022-08-11T23:40:45.775Z,22910.21
2022-08-11T23:43:24.208Z,22704.65
2022-08-11T23:45:51.095Z,22654.56
2022-08-11T23:48:19.720Z,22896.05
2022-08-11T23:50:48.125Z,22851.60
2022-08-11T23:53:15.205Z,22885.01
2022-08-11T23:55:41.986Z,22729.25
2022-08-11T23:58:11.328Z,22840.76
